createdAt,value
2023-02-06T00:00:53.586Z,21.42
2023-02-06T00:03:20.701Z,22.40
2023-02-06T00:05:59.065Z,22.08
2023-02-06T00:08:27.003Z,21.00
2023-02-06T00:10:54.112Z,24.10
2023-02-06T00:13:21.515Z,22.40
2023-02-06T00:15:48.464Z,21.67
2023-02-06T00:18:15.406Z,21.23
2023-02-06T00:20:42.365Z,20.48
2023-02-06T00:23:10.010Z,21.67
2023-02-06T00:25:37.175Z,20.40
2023-02-06T00:28:04.629Z,21.35
2023-02-06T00:30:31.564Z,21.00
2023-02-06T00:32:58.481Z,20.13
2023-02-06T00:35:25.694Z,21.60
2023-02-06T00:37:52.592Z,21.35
2023-02-06T00:40:19.626Z,22.08
2023-02-06T00:42:46.474Z,23.60
2023-02-06T00:45:13.508Z,22.08
2023-02-06T00:47:40.457Z,20.97
2023-02-06T00:50:07.616Z,20.95
2023-02-06T00:52:34.478Z,20.52
2023-02-06T00:55:01.331Z,20.90
2023-02-06T00:57:28.126Z,20.10
2023-02-06T00:59:55.030Z,19.55
2023-02-06T01:02:21.871Z,20.58
2023-02-06T01:04:48.777Z,20.25
2023-02-06T01:07:15.670Z,19.80
2023-02-06T01:09:42.535Z,20.30
2023-02-06T01:12:09.513Z,20.45
2023-02-06T01:14:36.360Z,20.00
2023-02-06T01:17:03.425Z,20.87
2023-02-06T01:19:30.278Z,20.00
2023-02-06T01:21:57.181Z,20.63
2023-02-06T01:24:24.131Z,20.33
2023-02-06T01:26:50.966Z,21.10
2023-02-06T01:29:17.894Z,20.95
2023-02-06T01:31:44.782Z,21.77
2023-02-06T01:34:12.387Z,21.10
2023-02-06T01:36:39.261Z,22.13
2023-02-06T01:39:06.725Z,21.00
2023-02-06T01:41:34.147Z,22.08
2023-02-06T01:44:15.656Z,21.60
2023-02-06T01:46:46.018Z,21.10
2023-02-06T01:49:21.045Z,21.80
2023-02-06T01:51:49.866Z,22.10
2023-02-06T01:54:17.135Z,21.60
2023-02-06T01:56:49.302Z,22.80
2023-02-06T01:59:16.602Z,20.67
2023-02-06T02:01:45.058Z,21.00
2023-02-06T02:04:16.987Z,20.90
2023-02-06T02:06:48.135Z,21.33
2023-02-06T02:09:15.626Z,22.17
2023-02-06T02:11:43.264Z,21.90
2023-02-06T02:14:13.610Z,21.50
2023-02-06T02:16:46.465Z,21.70
2023-02-06T02:19:37.234Z,21.87
2023-02-06T02:22:22.150Z,21.90
2023-02-06T02:25:07.730Z,21.83
2023-02-06T02:27:43.421Z,22.90
2023-02-06T02:31:14.704Z,22.60
2023-02-06T02:34:32.918Z,22.42
2023-02-06T02:37:30.859Z,22.80
2023-02-06T02:40:08.032Z,21.45
2023-02-06T02:42:51.007Z,22.38
2023-02-06T02:45:50.618Z,22.13
2023-02-06T02:48:23.734Z,21.50
2023-02-06T02:50:53.202Z,22.55
2023-02-06T02:53:20.226Z,22.88
2023-02-06T02:55:47.603Z,23.10
2023-02-06T02:58:20.839Z,22.55
2023-02-06T03:00:56.939Z,22.40
2023-02-06T03:03:28.886Z,22.58
2023-02-06T03:06:14.529Z,22.90
2023-02-06T03:08:56.153Z,22.23
2023-02-06T03:11:23.858Z,22.27
2023-02-06T03:13:54.112Z,21.95
2023-02-06T03:16:26.749Z,20.80
2023-02-06T03:19:11.513Z,22.50
2023-02-06T03:21:40.712Z,19.67
2023-02-06T03:24:12.808Z,17.08
2023-02-06T03:26:40.649Z,17.92
2023-02-06T03:29:16.475Z,15.98
2023-02-06T03:32:09.336Z,16.20
2023-02-06T03:34:59.689Z,15.50
2023-02-06T03:37:28.226Z,15.90
2023-02-06T03:39:58.067Z,15.90
2023-02-06T03:42:26.848Z,15.85
2023-02-06T03:45:06.333Z,16.55
2023-02-06T03:47:35.745Z,16.70
2023-02-06T03:50:03.433Z,16.95
2023-02-06T03:52:38.245Z,17.10
2023-02-06T03:55:19.940Z,16.60
2023-02-06T03:57:51.679Z,16.77
2023-02-06T04:00:19.222Z,16.48
2023-02-06T04:02:50.169Z,16.92
2023-02-06T04:05:18.464Z,17.30
2023-02-06T04:07:45.445Z,17.70
2023-02-06T04:10:12.331Z,16.20
2023-02-06T04:12:39.311Z,16.67
2023-02-06T04:15:06.477Z,15.98
2023-02-06T04:17:49.881Z,16.33
2023-02-06T04:20:20.902Z,16.00
2023-02-06T04:22:47.935Z,16.40
2023-02-06T04:25:15.093Z,16.30
2023-02-06T04:27:42.101Z,17.00
2023-02-06T04:30:09.649Z,28.50
2023-02-06T04:32:36.535Z,33.90
2023-02-06T04:35:03.505Z,21.60
2023-02-06T04:37:30.452Z,21.33
2023-02-06T04:39:57.334Z,20.35
2023-02-06T04:42:24.146Z,19.42
2023-02-06T04:44:51.115Z,23.30
2023-02-06T04:47:18.011Z,20.27
2023-02-06T04:49:44.947Z,28.70
2023-02-06T04:52:11.853Z,22.50
2023-02-06T04:54:38.779Z,32.10
2023-02-06T04:57:05.646Z,21.60
2023-02-06T04:59:32.567Z,21.02
2023-02-06T05:01:59.418Z,19.95
2023-02-06T05:04:26.382Z,20.10
2023-02-06T05:06:53.194Z,25.38
2023-02-06T05:09:20.106Z,20.50
2023-02-06T05:11:46.925Z,30.67
2023-02-06T05:14:13.784Z,41.80
2023-02-06T05:16:40.630Z,64.30
2023-02-06T05:19:07.697Z,46.80
2023-02-06T05:21:34.598Z,51.33
2023-02-06T05:24:01.543Z,31.25
2023-02-06T05:26:28.541Z,24.60
2023-02-06T05:28:55.454Z,20.40
2023-02-06T05:31:22.404Z,23.55
2023-02-06T05:33:52.462Z,25.17
2023-02-06T05:36:20.325Z,22.60
2023-02-06T05:38:48.313Z,27.60
2023-02-06T05:41:15.892Z,22.33
2023-02-06T05:43:43.121Z,34.08
2023-02-06T05:46:11.274Z,31.70
2023-02-06T05:48:38.581Z,34.97
2023-02-06T05:51:05.746Z,29.42
2023-02-06T05:53:32.905Z,25.85
2023-02-06T05:55:59.769Z,21.42
2023-02-06T05:58:26.826Z,22.03
2023-02-06T06:00:53.745Z,21.40
2023-02-06T06:03:20.725Z,20.38
2023-02-06T06:05:47.612Z,21.67
2023-02-06T06:08:15.559Z,21.70
2023-02-06T06:10:42.483Z,25.70
2023-02-06T06:13:09.467Z,26.20
2023-02-06T06:15:36.629Z,26.77
2023-02-06T06:18:03.859Z,27.10
2023-02-06T06:20:30.735Z,27.67
2023-02-06T06:22:57.681Z,24.45
2023-02-06T06:25:24.510Z,23.48
2023-02-06T06:27:51.428Z,20.50
2023-02-06T06:30:18.420Z,21.02
2023-02-06T06:32:45.290Z,20.25
2023-02-06T06:35:12.102Z,18.93
2023-02-06T06:37:39.199Z,19.38
2023-02-06T06:40:06.604Z,19.92
2023-02-06T06:42:33.486Z,20.60
2023-02-06T06:45:00.322Z,21.33
2023-02-06T06:47:27.145Z,19.25
2023-02-06T06:49:54.529Z,19.98
2023-02-06T06:52:25.351Z,20.20
2023-02-06T06:54:53.138Z,19.63
2023-02-06T06:57:20.858Z,20.08
2023-02-06T06:59:47.742Z,19.90
2023-02-06T07:02:14.940Z,19.13
2023-02-06T07:04:42.193Z,19.92
2023-02-06T07:07:09.307Z,19.52
2023-02-06T07:09:36.125Z,18.70
2023-02-06T07:12:03.305Z,19.60
2023-02-06T07:14:30.173Z,18.33
2023-02-06T07:16:57.153Z,19.17
2023-02-06T07:19:24.053Z,19.95
2023-02-06T07:21:50.922Z,19.35
2023-02-06T07:24:17.783Z,19.98
2023-02-06T07:26:45.240Z,20.30
2023-02-06T07:29:13.115Z,19.90
2023-02-06T07:31:40.061Z,20.30
2023-02-06T07:34:06.911Z,20.80
2023-02-06T07:36:33.872Z,21.50
2023-02-06T07:39:02.970Z,21.67
2023-02-06T07:41:29.889Z,21.85
2023-02-06T07:43:56.685Z,22.55
2023-02-06T07:46:23.654Z,23.88
2023-02-06T07:48:50.578Z,24.00
2023-02-06T07:51:17.606Z,23.20
2023-02-06T07:53:44.487Z,23.42
2023-02-06T07:56:17.158Z,23.55
2023-02-06T07:58:44.496Z,24.20
2023-02-06T08:01:11.589Z,26.02
2023-02-06T08:03:38.618Z,24.37
2023-02-06T08:06:10.955Z,25.40
2023-02-06T08:08:38.231Z,24.77
2023-02-06T08:11:10.235Z,25.92
2023-02-06T08:13:37.576Z,25.73
2023-02-06T08:16:10.543Z,27.03
2023-02-06T08:18:38.317Z,26.90
2023-02-06T08:21:09.688Z,25.70
2023-02-06T08:23:36.883Z,25.10
2023-02-06T08:26:06.531Z,26.30
2023-02-06T08:28:35.259Z,24.98
2023-02-06T08:31:10.292Z,23.38
2023-02-06T08:33:37.497Z,23.30
2023-02-06T08:36:05.503Z,21.95
2023-02-06T08:38:32.708Z,23.35
2023-02-06T08:40:59.553Z,22.47
2023-02-06T08:43:26.740Z,23.35
2023-02-06T08:45:57.374Z,24.52
2023-02-06T08:48:24.345Z,24.90
2023-02-06T08:50:51.270Z,25.13
2023-02-06T08:53:18.163Z,23.92
2023-02-06T08:55:45.021Z,25.98
2023-02-06T08:58:11.933Z,23.50
2023-02-06T09:00:39.114Z,23.85
2023-02-06T09:03:06.029Z,22.08
2023-02-06T09:05:32.901Z,22.88
2023-02-06T09:08:01.222Z,22.38
2023-02-06T09:10:28.428Z,22.48
2023-02-06T09:12:55.463Z,24.20
2023-02-06T09:15:22.502Z,22.08
2023-02-06T09:17:49.386Z,22.10
2023-02-06T09:20:16.706Z,20.52
2023-02-06T09:22:44.696Z,20.55
2023-02-06T09:25:11.689Z,21.60
2023-02-06T09:27:38.673Z,21.23
2023-02-06T09:30:06.155Z,20.77
2023-02-06T09:32:32.967Z,20.77
2023-02-06T09:34:59.948Z,19.83
2023-02-06T09:37:26.799Z,19.10
2023-02-06T09:39:53.691Z,20.13
2023-02-06T09:42:37.254Z,19.67
2023-02-06T09:45:14.806Z,20.67
2023-02-06T09:47:49.745Z,20.30
2023-02-06T09:50:16.619Z,19.13
2023-02-06T09:52:46.169Z,19.10
2023-02-06T09:55:18.885Z,18.98
2023-02-06T09:58:04.734Z,19.85
2023-02-06T10:01:05.434Z,19.50
2023-02-06T10:04:01.692Z,19.00
2023-02-06T10:06:35.300Z,20.27
2023-02-06T10:09:08.283Z,19.20
2023-02-06T10:11:45.181Z,18.83
2023-02-06T10:14:38.598Z,18.10
2023-02-06T10:17:20.652Z,17.30
2023-02-06T10:19:54.470Z,17.83
2023-02-06T10:22:32.398Z,18.23
2023-02-06T10:25:27.263Z,17.80
2023-02-06T10:28:03.175Z,18.83
2023-02-06T10:31:03.842Z,18.98
2023-02-06T10:33:49.027Z,17.75
2023-02-06T10:36:22.052Z,17.67
2023-02-06T10:38:59.090Z,17.55
2023-02-06T10:41:43.976Z,16.90
2023-02-06T10:44:27.132Z,16.80
2023-02-06T10:46:55.716Z,16.90
2023-02-06T10:49:34.696Z,18.73
2023-02-06T10:52:11.748Z,16.73
2023-02-06T10:54:42.418Z,17.02
2023-02-06T10:57:18.673Z,16.38
2023-02-06T10:59:48.390Z,16.90
2023-02-06T11:02:42.928Z,17.48
2023-02-06T11:05:12.966Z,17.17
2023-02-06T11:07:46.309Z,17.17
2023-02-06T11:10:17.157Z,16.58
2023-02-06T11:12:54.211Z,16.50
2023-02-06T11:15:33.167Z,16.47
2023-02-06T11:18:14.697Z,16.00
2023-02-06T11:20:48.755Z,16.02
2023-02-06T11:23:27.849Z,16.35
2023-02-06T11:26:19.247Z,16.40
2023-02-06T11:28:59.255Z,16.95
2023-02-06T11:31:50.083Z,16.30
2023-02-06T11:35:03.254Z,16.60
2023-02-06T11:37:38.066Z,15.82
2023-02-06T11:40:34.933Z,16.40
2023-02-06T11:43:25.948Z,16.20
2023-02-06T11:46:15.237Z,16.83
2023-02-06T11:48:55.551Z,16.60
2023-02-06T11:51:26.342Z,16.92
2023-02-06T11:53:58.685Z,17.23
2023-02-06T11:56:25.981Z,16.75
2023-02-06T11:59:19.419Z,17.25
2023-02-06T12:01:47.775Z,16.92
2023-02-06T12:04:23.755Z,17.30
2023-02-06T12:07:01.382Z,17.20
2023-02-06T12:09:28.645Z,16.63
2023-02-06T12:12:10.538Z,16.40
2023-02-06T12:14:56.862Z,16.55
2023-02-06T12:17:39.981Z,16.60
2023-02-06T12:20:23.722Z,17.10
2023-02-06T12:23:05.930Z,16.70
2023-02-06T12:25:41.605Z,17.65
2023-02-06T12:28:25.123Z,18.07
2023-02-06T12:30:57.945Z,17.75
2023-02-06T12:33:36.166Z,17.10
2023-02-06T12:36:25.778Z,16.40
2023-02-06T12:39:00.852Z,18.10
2023-02-06T12:41:46.904Z,18.60
2023-02-06T12:44:54.141Z,17.40
2023-02-06T12:47:37.141Z,16.73
2023-02-06T12:50:17.419Z,16.67
2023-02-06T12:53:02.708Z,17.43
2023-02-06T12:55:38.575Z,17.45
2023-02-06T12:58:20.904Z,17.05
2023-02-06T13:01:02.843Z,17.97
2023-02-06T13:03:51.184Z,17.30
2023-02-06T13:06:22.037Z,17.60
2023-02-06T13:08:56.487Z,17.25
2023-02-06T13:11:28.937Z,17.55
2023-02-06T13:14:07.017Z,18.40
2023-02-06T13:16:56.729Z,17.30
2023-02-06T13:19:51.369Z,17.20
2023-02-06T13:22:31.452Z,17.42
2023-02-06T13:24:59.026Z,16.80
2023-02-06T13:27:38.362Z,17.38
2023-02-06T13:30:31.024Z,17.47
2023-02-06T13:33:19.329Z,16.30
2023-02-06T13:36:02.549Z,16.63
2023-02-06T13:38:35.407Z,17.42
2023-02-06T13:41:14.576Z,16.80
2023-02-06T13:44:06.679Z,17.83
2023-02-06T13:46:51.957Z,17.85
2023-02-06T13:49:47.885Z,16.65
2023-02-06T13:52:39.063Z,16.90
2023-02-06T13:56:04.792Z,16.73
2023-02-06T13:58:43.754Z,17.50
2023-02-06T14:01:14.418Z,16.70
2023-02-06T14:03:48.093Z,17.30
2023-02-06T14:06:22.274Z,17.92
2023-02-06T14:08:57.904Z,17.07
2023-02-06T14:12:21.597Z,17.73
2023-02-06T14:15:12.797Z,16.60
2023-02-06T14:17:58.218Z,16.63
2023-02-06T14:21:04.042Z,18.20
2023-02-06T14:23:44.706Z,17.20
2023-02-06T14:26:49.712Z,17.40
2023-02-06T14:29:22.794Z,16.70
2023-02-06T14:32:05.662Z,17.52
2023-02-06T14:34:58.023Z,17.27
2023-02-06T14:37:48.392Z,17.40
2023-02-06T14:40:24.705Z,17.38
2023-02-06T14:42:56.056Z,17.50
2023-02-06T14:45:42.437Z,16.90
2023-02-06T14:48:24.786Z,16.90
2023-02-06T14:50:56.603Z,17.52
2023-02-06T14:53:28.525Z,16.55
2023-02-06T14:56:18.639Z,18.50
2023-02-06T14:58:46.503Z,17.30
2023-02-06T15:01:18.680Z,16.23
2023-02-06T15:03:47.136Z,17.70
2023-02-06T15:06:28.275Z,16.98
2023-02-06T15:08:55.291Z,17.17
2023-02-06T15:11:25.426Z,17.52
2023-02-06T15:13:55.083Z,17.17
2023-02-06T15:16:22.578Z,17.02
2023-02-06T15:18:49.514Z,16.67
2023-02-06T15:21:21.220Z,16.38
2023-02-06T15:24:00.322Z,16.30
2023-02-06T15:26:45.751Z,17.67
2023-02-06T15:29:19.733Z,16.73
2023-02-06T15:31:56.674Z,17.05
2023-02-06T15:34:24.998Z,17.27
2023-02-06T15:36:52.766Z,16.70
2023-02-06T15:39:20.194Z,17.02
2023-02-06T15:41:49.520Z,16.27
2023-02-06T15:44:22.680Z,16.10
2023-02-06T15:46:50.921Z,16.30
2023-02-06T15:49:41.039Z,16.25
2023-02-06T15:52:08.626Z,15.75
2023-02-06T15:54:35.794Z,16.70
2023-02-06T15:57:05.631Z,16.23
2023-02-06T15:59:36.145Z,16.38
2023-02-06T16:02:04.013Z,17.27
2023-02-06T16:04:35.611Z,17.08
2023-02-06T16:07:28.018Z,16.15
2023-02-06T16:10:13.862Z,16.65
2023-02-06T16:12:43.254Z,16.40
2023-02-06T16:15:32.099Z,15.80
2023-02-06T16:18:01.882Z,15.27
2023-02-06T16:20:39.443Z,15.90
2023-02-06T16:23:20.030Z,15.82
2023-02-06T16:25:58.775Z,15.57
2023-02-06T16:28:27.271Z,19.73
2023-02-06T16:30:57.424Z,15.85
2023-02-06T16:33:42.137Z,15.60
2023-02-06T16:36:12.947Z,15.10
2023-02-06T16:38:40.215Z,17.08
2023-02-06T16:41:27.336Z,15.30
2023-02-06T16:43:55.847Z,15.38
2023-02-06T16:46:23.228Z,21.10
2023-02-06T16:48:50.260Z,19.23
2023-02-06T16:51:19.490Z,16.35
2023-02-06T16:53:48.441Z,16.67
2023-02-06T16:56:16.614Z,15.00
2023-02-06T16:58:44.414Z,14.65
2023-02-06T17:01:23.025Z,15.03
2023-02-06T17:03:50.762Z,14.90
2023-02-06T17:06:27.250Z,15.10
2023-02-06T17:09:03.234Z,15.30
2023-02-06T17:11:31.245Z,15.50
2023-02-06T17:13:58.423Z,15.20
2023-02-06T17:16:26.942Z,15.43
2023-02-06T17:18:54.454Z,15.18
2023-02-06T17:21:23.924Z,14.70
2023-02-06T17:23:51.612Z,15.70
2023-02-06T17:26:22.344Z,15.43
2023-02-06T17:28:50.135Z,15.70
2023-02-06T17:31:17.591Z,17.90
2023-02-06T17:33:44.778Z,16.53
2023-02-06T17:36:29.534Z,16.23
2023-02-06T17:38:58.931Z,14.90
2023-02-06T17:41:30.684Z,14.90
2023-02-06T17:43:57.582Z,15.63
2023-02-06T17:46:24.480Z,15.50
2023-02-06T17:48:51.397Z,14.70
2023-02-06T17:51:18.331Z,15.10
2023-02-06T17:53:45.277Z,16.65
2023-02-06T17:56:13.598Z,15.95
2023-02-06T17:58:42.118Z,16.10
2023-02-06T18:01:13.921Z,15.70
2023-02-06T18:03:41.595Z,15.45
2023-02-06T18:06:09.013Z,16.60
2023-02-06T18:08:36.135Z,15.45
2023-02-06T18:11:11.513Z,16.60
2023-02-06T18:13:39.913Z,15.00
2023-02-06T18:16:07.604Z,16.40
2023-02-06T18:18:34.784Z,14.55
2023-02-06T18:21:01.840Z,15.88
2023-02-06T18:23:28.939Z,17.77
2023-02-06T18:26:00.511Z,15.60
2023-02-06T18:28:27.466Z,14.80
2023-02-06T18:30:54.543Z,14.77
2023-02-06T18:33:21.629Z,15.10
2023-02-06T18:35:51.013Z,16.05
2023-02-06T18:38:18.658Z,14.90
2023-02-06T18:40:46.702Z,15.50
2023-02-06T18:43:14.784Z,15.23
2023-02-06T18:45:42.491Z,16.70
2023-02-06T18:48:12.468Z,15.82
2023-02-06T18:50:42.125Z,14.90
2023-02-06T18:53:09.533Z,15.77
2023-02-06T18:55:37.336Z,15.17
2023-02-06T18:58:08.073Z,14.95
2023-02-06T19:00:37.733Z,14.90
2023-02-06T19:03:05.122Z,14.63
2023-02-06T19:05:35.962Z,15.50
2023-02-06T19:08:02.935Z,14.50
2023-02-06T19:10:29.879Z,14.68
2023-02-06T19:12:56.875Z,15.55
2023-02-06T19:15:23.981Z,14.90
2023-02-06T19:17:50.976Z,14.30
2023-02-06T19:20:19.203Z,14.73
2023-02-06T19:22:46.122Z,15.70
2023-02-06T19:25:14.612Z,15.00
2023-02-06T19:27:41.779Z,15.10
2023-02-06T19:30:09.420Z,14.52
2023-02-06T19:32:36.585Z,14.65
2023-02-06T19:35:04.025Z,14.55
2023-02-06T19:37:31.508Z,14.60
2023-02-06T19:39:58.350Z,15.53
2023-02-06T19:42:25.482Z,15.00
2023-02-06T19:44:54.781Z,15.20
2023-02-06T19:47:22.397Z,25.50
2023-02-06T19:49:51.819Z,15.40
2023-02-06T19:52:19.277Z,17.30
2023-02-06T19:54:47.789Z,15.52
2023-02-06T19:57:15.981Z,15.07
2023-02-06T19:59:43.006Z,14.90
2023-02-06T20:02:13.191Z,14.00
2023-02-06T20:04:41.441Z,14.00
2023-02-06T20:07:08.614Z,15.20
2023-02-06T20:09:36.613Z,14.02
2023-02-06T20:12:03.709Z,14.10
2023-02-06T20:14:30.723Z,14.80
2023-02-06T20:16:57.653Z,14.20
2023-02-06T20:19:27.170Z,14.55
2023-02-06T20:21:57.015Z,14.05
2023-02-06T20:24:27.856Z,14.25
2023-02-06T20:26:57.591Z,14.70
2023-02-06T20:29:33.494Z,14.38
2023-02-06T20:32:01.397Z,14.25
2023-02-06T20:34:28.835Z,15.00
2023-02-06T20:36:56.849Z,15.30
2023-02-06T20:39:24.943Z,16.20
2023-02-06T20:41:52.581Z,15.90
2023-02-06T20:44:20.269Z,16.05
2023-02-06T20:46:47.965Z,15.10
2023-02-06T20:49:21.797Z,15.40
2023-02-06T20:51:49.500Z,14.60
2023-02-06T20:54:17.701Z,15.98
2023-02-06T20:56:45.187Z,15.30
2023-02-06T20:59:14.322Z,14.30
2023-02-06T21:01:41.960Z,14.23
2023-02-06T21:04:11.320Z,18.35
2023-02-06T21:06:39.657Z,17.88
2023-02-06T21:09:08.048Z,17.95
2023-02-06T21:11:39.119Z,14.57
2023-02-06T21:14:07.056Z,16.15
2023-02-06T21:16:35.662Z,16.30
2023-02-06T21:19:04.380Z,15.23
2023-02-06T21:21:31.502Z,14.50
2023-02-06T21:23:58.907Z,14.80
2023-02-06T21:26:27.284Z,14.88
2023-02-06T21:28:54.922Z,14.03
2023-02-06T21:31:25.115Z,14.75
2023-02-06T21:33:52.655Z,15.27
2023-02-06T21:36:21.189Z,14.73
2023-02-06T21:38:48.243Z,14.68
2023-02-06T21:41:17.783Z,14.60
2023-02-06T21:43:45.468Z,14.80
2023-02-06T21:46:13.271Z,13.80
2023-02-06T21:48:41.438Z,14.20
2023-02-06T21:51:12.962Z,14.70
2023-02-06T21:53:40.509Z,14.30
2023-02-06T21:56:20.686Z,14.27
2023-02-06T21:58:48.526Z,15.45
2023-02-06T22:01:21.843Z,15.35
2023-02-06T22:03:48.925Z,15.20
2023-02-06T22:06:16.562Z,14.68
2023-02-06T22:08:47.963Z,15.30
2023-02-06T22:11:27.359Z,14.98
2023-02-06T22:13:59.043Z,14.70
2023-02-06T22:16:26.393Z,14.97
2023-02-06T22:18:53.999Z,14.70
2023-02-06T22:21:23.733Z,14.70
2023-02-06T22:23:51.343Z,15.40
2023-02-06T22:26:20.674Z,15.90
2023-02-06T22:28:48.316Z,15.35
2023-02-06T22:31:21.375Z,14.48
2023-02-06T22:33:49.293Z,15.98
2023-02-06T22:36:18.880Z,15.80
2023-02-06T22:38:47.022Z,15.02
2023-02-06T22:41:15.981Z,16.20
2023-02-06T22:43:44.434Z,15.80
2023-02-06T22:46:25.203Z,18.52
2023-02-06T22:48:53.175Z,16.35
2023-02-06T22:51:21.192Z,15.80
2023-02-06T22:53:48.563Z,15.60
2023-02-06T22:56:37.048Z,16.23
2023-02-06T22:59:22.802Z,16.65
2023-02-06T23:01:51.204Z,16.25
2023-02-06T23:04:21.838Z,15.30
2023-02-06T23:06:50.077Z,15.90
2023-02-06T23:09:27.743Z,15.90
2023-02-06T23:11:58.152Z,15.90
2023-02-06T23:14:25.977Z,16.35
2023-02-06T23:16:52.971Z,15.57
2023-02-06T23:19:20.164Z,15.48
2023-02-06T23:21:49.288Z,15.80
2023-02-06T23:24:16.297Z,16.17
2023-02-06T23:26:45.550Z,16.52
2023-02-06T23:29:17.864Z,16.63
2023-02-06T23:31:46.318Z,16.13
2023-02-06T23:34:13.999Z,16.30
2023-02-06T23:36:43.500Z,16.13
2023-02-06T23:39:11.990Z,16.00
2023-02-06T23:41:39.262Z,15.75
2023-02-06T23:44:07.902Z,15.80
2023-02-06T23:46:36.779Z,16.20
2023-02-06T23:49:04.554Z,16.50
2023-02-06T23:51:32.927Z,15.70
2023-02-06T23:54:00.058Z,15.75
2023-02-06T23:56:29.164Z,15.80
2023-02-06T23:58:57.526Z,15.52
